Time;durP1;ratioP1;P1;durP2;ratioP2;P2;SDS_P1;SDS_P2;PMS_P1;PMS_P2;Temp;Humidity;BMP_temperature;BMP_pressure;BME280_temperature;BME280_humidity;BME280_pressure;Samples;Min_cycle;Max_cycle;Signal;HPM_P1;HPM_P2
2022/04/18 00:02:21;;;;;;;3.23;3.00;;;;;;;9.14;45.60;99155.31;7032977;28;20247;-81
2022/04/18 00:05:44;;;;;;;3.47;3.10;;;;;;;9.24;45.35;99135.19;7033607;28;20196;-80
2022/04/18 00:09:07;;;;;;;4.07;3.17;;;;;;;9.53;44.71;99156.66;7034378;28;20262;-80
2022/04/18 00:12:29;;;;;;;3.30;3.07;;;;;;;9.81;43.79;99144.09;7033747;28;20303;-80
2022/04/18 00:15:51;;;;;;;3.07;2.87;;;;;;;9.55;44.41;99154.59;7033294;28;20209;-79
2022/04/18 00:19:12;;;;;;;3.87;3.37;;;;;;;9.50;44.33;99132.81;7033279;28;20299;-79
2022/04/18 00:22:35;;;;;;;3.67;3.33;;;;;;;9.89;43.45;99148.53;7033192;28;20246;-80
2022/04/18 00:25:57;;;;;;;3.43;3.13;;;;;;;9.65;44.03;99152.44;7032881;28;20209;-80
2022/04/18 00:29:19;;;;;;;3.33;3.03;;;;;;;9.25;45.02;99141.41;7033790;28;20236;-80
2022/04/18 00:32:40;;;;;;;4.30;3.00;;;;;;;9.27;45.39;99124.03;7033239;28;20221;-80
2022/04/18 00:36:02;;;;;;;3.53;3.23;;;;;;;9.09;45.46;99131.69;7032090;28;20264;-80
2022/04/18 00:39:25;;;;;;;4.40;3.30;;;;;;;9.26;45.41;99137.69;7032732;28;20224;-79
2022/04/18 00:42:46;;;;;;;5.47;3.67;;;;;;;9.08;45.25;99134.56;7032854;28;20208;-78
2022/04/18 00:46:08;;;;;;;3.33;3.03;;;;;;;8.95;46.23;99134.38;7032637;28;20717;-80
2022/04/18 00:49:30;;;;;;;9.17;5.87;;;;;;;9.28;45.15;99133.78;7031241;28;20262;-80
2022/04/18 00:52:53;;;;;;;5.50;4.30;;;;;;;9.34;44.81;99132.19;7032296;28;20319;-79
2022/04/18 00:56:17;;;;;;;5.73;3.73;;;;;;;8.88;45.67;99132.63;7032615;28;20205;-79
2022/04/18 00:59:39;;;;;;;3.53;3.23;;;;;;;8.23;47.40;99129.81;7033239;28;20247;-79
2022/04/18 01:03:02;;;;;;;3.63;3.20;;;;;;;8.30;47.72;99125.38;7031676;28;20654;-79
2022/04/18 01:06:23;;;;;;;3.07;2.87;;;;;;;8.74;46.59;99120.88;7036657;28;20249;-79
2022/04/18 01:09:45;;;;;;;4.03;3.23;;;;;;;8.53;46.73;99122.63;7042423;28;20653;-80
2022/04/18 01:13:08;;;;;;;3.77;3.40;;;;;;;8.54;46.94;99121.63;7041375;28;20688;-80
2022/04/18 01:16:29;;;;;;;3.60;3.30;;;;;;;8.24;47.72;99126.09;7031248;28;20247;-80
2022/04/18 01:19:51;;;;;;;4.87;4.03;;;;;;;8.37;47.58;99099.44;7031324;28;20241;-80
2022/04/18 01:23:14;;;;;;;4.60;3.33;;;;;;;8.29;46.59;99088.78;7031380;28;20354;-80
2022/04/18 01:30:15;;;;;;;3.63;3.20;;;;;;;8.50;46.51;99093.44;7031354;28;20217;-80
2022/04/18 01:33:37;;;;;;;3.60;3.30;;;;;;;8.24;48.02;99101.13;7031338;28;20228;-80
2022/04/18 01:36:58;;;;;;;3.27;3.07;;;;;;;7.89;48.33;99080.28;7031013;28;20710;-80
2022/04/18 01:40:21;;;;;;;3.50;3.30;;;;;;;7.28;49.89;99096.50;7031870;28;20362;-79
2022/04/18 01:43:43;;;;;;;6.07;3.30;;;;;;;7.68;49.27;99080.09;7031459;28;20202;-81
2022/04/18 01:47:05;;;;;;;4.93;3.60;;;;;;;8.05;48.43;99097.06;7030493;28;20760;-80
2022/04/18 01:50:26;;;;;;;3.60;3.30;;;;;;;8.21;48.01;99086.19;7030818;28;20350;-80
2022/04/18 01:53:48;;;;;;;3.70;3.30;;;;;;;8.45;46.99;99091.31;7030652;28;20224;-79
2022/04/18 01:57:11;;;;;;;3.80;3.50;;;;;;;8.06;47.77;99090.66;7030371;28;20822;-80
2022/04/18 02:00:33;;;;;;;3.53;3.23;;;;;;;8.06;46.81;99050.38;7029601;28;20231;-80
2022/04/18 02:03:55;;;;;;;3.97;3.63;;;;;;;7.64;48.78;99065.38;7030910;28;20192;-80
2022/04/18 02:07:16;;;;;;;4.00;3.60;;;;;;;7.94;48.60;99091.28;7030244;28;20212;-78
2022/04/18 02:10:38;;;;;;;4.70;3.63;;;;;;;7.70;49.13;99078.06;7030600;28;20225;-79
2022/04/18 02:14:01;;;;;;;3.70;3.40;;;;;;;7.34;49.69;99067.13;7030089;28;20233;-80
2022/04/18 02:17:23;;;;;;;4.10;3.20;;;;;;;7.95;48.23;99050.84;7029893;28;20241;-80
2022/04/18 02:20:45;;;;;;;3.93;3.63;;;;;;;7.73;48.24;99045.53;7030128;28;20251;-79
2022/04/18 02:24:06;;;;;;;5.27;3.87;;;;;;;7.42;49.04;99034.06;7030010;28;20616;-80
2022/04/18 02:27:28;;;;;;;4.30;3.87;;;;;;;7.16;50.12;99066.56;7029877;28;20200;-79
2022/04/18 02:30:51;;;;;;;5.07;3.83;;;;;;;7.10;50.52;99050.34;7029564;28;20370;-80
2022/04/18 02:34:12;;;;;;;4.07;3.60;;;;;;;7.54;49.64;99054.88;7030024;28;20737;-80
2022/04/18 02:37:34;;;;;;;4.30;3.90;;;;;;;7.26;49.87;99066.34;7029915;28;20243;-80
2022/04/18 02:40:56;;;;;;;4.10;3.70;;;;;;;7.36;49.48;99046.31;7029677;28;20229;-79
2022/04/18 02:44:18;;;;;;;3.97;3.60;;;;;;;7.72;48.82;99050.03;7029499;28;20603;-80
2022/04/18 02:47:41;;;;;;;4.20;3.80;;;;;;;7.79;48.44;99050.16;7029582;28;20210;-80
2022/04/18 02:51:02;;;;;;;5.43;3.90;;;;;;;7.74;48.72;99053.41;7029772;28;20232;-79
2022/04/18 02:54:24;;;;;;;7.27;3.63;;;;;;;7.07;48.23;98992.56;7029137;28;20229;-79
2022/04/18 02:57:46;;;;;;;4.27;3.93;;;;;;;7.42;49.38;99048.28;7028772;28;20201;-79
2022/04/18 03:01:07;;;;;;;5.40;4.90;;;;;;;7.33;49.59;99037.78;7028800;28;20223;-80
2022/04/18 03:04:30;;;;;;;4.90;4.40;;;;;;;7.91;47.85;99052.19;7029521;28;20197;-80
2022/04/18 03:07:52;;;;;;;4.73;4.20;;;;;;;7.64;48.71;99036.69;7029294;28;20212;-79
2022/04/18 03:11:13;;;;;;;4.70;3.97;;;;;;;7.63;48.44;99021.63;7030966;28;20270;-79
2022/04/18 03:14:35;;;;;;;17.03;4.57;;;;;;;7.79;47.75;99039.41;7035305;28;20315;-80
2022/04/18 03:17:56;;;;;;;4.10;3.80;;;;;;;7.35;48.33;99019.66;7034881;28;20350;-79
2022/04/18 03:21:19;;;;;;;4.10;3.80;;;;;;;6.75;49.01;98966.00;7035043;28;20252;-79
2022/04/18 03:24:41;;;;;;;4.10;3.80;;;;;;;7.15;49.26;99008.59;7034782;28;20601;-79
2022/04/18 03:28:03;;;;;;;4.50;3.67;;;;;;;7.41;49.01;99033.19;7033855;28;20201;-79
2022/04/18 03:31:24;;;;;;;5.13;4.10;;;;;;;6.78;50.65;99045.19;7034611;28;20767;-78
2022/04/18 03:34:46;;;;;;;4.57;4.17;;;;;;;6.81;50.67;99045.66;7034508;28;20245;-80
2022/04/18 03:41:48;;;;;;;7.23;5.20;;;;;;;7.21;49.75;99002.53;7034363;28;20217;-79
2022/04/18 03:45:09;;;;;;;4.67;4.27;;;;;;;7.15;49.85;99042.63;7034716;28;20204;-78
2022/04/18 03:48:31;;;;;;;6.03;5.07;;;;;;;7.43;49.39;99033.84;7033885;28;20266;-79
2022/04/18 03:51:52;;;;;;;4.10;3.63;;;;;;;7.45;48.42;99036.34;7034211;28;20262;-80
2022/04/18 03:55:15;;;;;;;4.20;3.90;;;;;;;7.35;48.79;99019.66;7033595;28;20229;-79
2022/04/18 03:58:37;;;;;;;4.67;4.23;;;;;;;6.97;49.21;98985.78;7032639;28;20204;-79
2022/04/18 04:01:58;;;;;;;5.07;4.23;;;;;;;6.74;50.40;99011.72;7032132;28;20272;-79
2022/04/18 04:05:20;;;;;;;4.43;4.10;;;;;;;7.02;49.93;99028.97;7034251;28;20304;-79
2022/04/18 04:08:42;;;;;;;4.53;4.13;;;;;;;6.98;49.95;99003.53;7034595;28;20693;-81
2022/04/18 04:12:06;;;;;;;4.23;3.87;;;;;;;7.14;49.44;99012.28;7035066;28;20705;-81
2022/04/18 04:15:28;;;;;;;4.50;4.10;;;;;;;7.32;48.80;99015.50;7035273;28;20238;-81
2022/04/18 04:18:50;;;;;;;4.23;3.83;;;;;;;7.33;49.15;99013.66;7034082;28;22292;-82
2022/04/18 04:22:12;;;;;;;4.63;4.23;;;;;;;6.83;50.31;98987.38;7033863;28;20217;-81
2022/04/18 04:25:33;;;;;;;4.40;4.10;;;;;;;6.91;50.34;99008.78;7034131;28;20210;-81
2022/04/18 04:28:56;;;;;;;5.03;4.50;;;;;;;6.82;50.38;99004.47;7039207;28;20743;-82
2022/04/18 04:32:18;;;;;;;4.77;4.37;;;;;;;6.85;50.40;99003.28;7033575;28;20274;-81
2022/04/18 04:35:39;;;;;;;4.77;4.00;;;;;;;6.80;50.71;99019.88;7033811;28;20227;-81
2022/04/18 04:39:01;;;;;;;5.87;4.10;;;;;;;6.42;51.05;98993.13;7034119;28;20212;-82
2022/04/18 04:42:22;;;;;;;4.30;3.90;;;;;;;6.07;52.13;99017.69;7034198;28;20197;-81
2022/04/18 04:45:45;;;;;;;5.77;4.00;;;;;;;6.29;52.37;99011.56;7033666;28;20209;-79
2022/04/18 04:49:09;;;;;;;5.57;4.43;;;;;;;6.78;50.55;99019.22;7034631;28;20572;-79
2022/04/18 04:52:31;;;;;;;6.37;4.13;;;;;;;7.00;49.55;99005.00;7033787;28;20202;-80
2022/04/18 04:55:52;;;;;;;3.80;3.50;;;;;;;7.24;48.64;98987.94;7033195;28;20236;-79
2022/04/18 04:59:14;;;;;;;4.33;3.93;;;;;;;7.20;48.60;98976.69;7033488;28;20214;-82
2022/04/18 05:02:38;;;;;;;4.73;4.30;;;;;;;6.76;49.63;99002.50;7033699;28;20235;-81
2022/04/18 05:05:59;;;;;;;7.83;4.00;;;;;;;6.74;50.56;99006.34;7034490;28;20578;-81
2022/04/18 05:09:21;;;;;;;5.20;3.93;;;;;;;6.88;50.74;99014.47;7033930;28;20223;-81
2022/04/18 05:12:43;;;;;;;4.63;3.73;;;;;;;6.64;50.03;99021.78;7015697;28;20199;-81
2022/04/18 05:16:05;;;;;;;5.53;4.37;;;;;;;6.76;49.99;99018.56;7032298;28;20244;-81
2022/04/18 05:19:28;;;;;;;4.33;3.93;;;;;;;6.99;49.98;99015.91;7032466;28;20253;-81
2022/04/18 05:22:50;;;;;;;4.27;3.87;;;;;;;7.00;50.18;99014.88;7032595;28;20208;-82
2022/04/18 05:26:11;;;;;;;4.73;3.77;;;;;;;7.20;49.53;99011.56;7033734;28;20264;-82
2022/04/18 05:29:33;;;;;;;5.57;4.03;;;;;;;7.30;48.80;98998.75;7033967;28;20220;-82
2022/04/18 05:32:54;;;;;;;4.47;3.70;;;;;;;7.26;48.82;99013.53;7034021;28;20213;-81
2022/04/18 05:36:17;;;;;;;5.57;4.37;;;;;;;7.45;49.16;99022.94;7032744;28;20308;-82
2022/04/18 05:39:39;;;;;;;4.53;3.93;;;;;;;8.04;48.44;99027.44;7034589;28;20228;-80
2022/04/18 05:43:02;;;;;;;5.00;4.10;;;;;;;8.13;47.66;99035.22;7035966;28;20358;-80
2022/04/18 05:46:26;;;;;;;4.33;3.93;;;;;;;8.35;47.57;99015.53;7043750;28;20209;-80
2022/04/18 05:49:47;;;;;;;4.83;3.97;;;;;;;8.80;47.05;99022.50;7047043;28;20220;-80
2022/04/18 05:53:10;;;;;;;4.70;4.20;;;;;;;9.10;45.29;99014.19;7042374;28;20201;-80
2022/04/18 05:56:32;;;;;;;3.63;3.33;;;;;;;9.33;44.75;99023.72;7032261;28;20752;-80
2022/04/18 05:59:54;;;;;;;4.03;3.70;;;;;;;9.65;44.29;99017.84;7031966;28;20277;-80
2022/04/18 06:03:15;;;;;;;4.03;3.40;;;;;;;9.57;44.50;98982.16;7031127;28;20208;-80
2022/04/18 06:06:37;;;;;;;4.23;3.83;;;;;;;9.94;43.60;99014.13;7031209;28;20232;-80
2022/04/18 06:10:00;;;;;;;4.97;3.70;;;;;;;9.65;43.28;99019.69;7031272;28;20599;-80
2022/04/18 06:13:21;;;;;;;3.80;3.50;;;;;;;9.96;43.69;99006.66;7030995;28;20208;-80
2022/04/18 06:16:43;;;;;;;5.43;3.90;;;;;;;10.30;42.39;98990.56;7031604;28;20275;-80
2022/04/18 06:20:06;;;;;;;4.23;3.83;;;;;;;12.42;38.20;98994.88;7032110;28;20217;-80
2022/04/18 06:23:27;;;;;;;4.77;4.37;;;;;;;13.03;37.03;98996.09;7031405;28;20212;-80
2022/04/18 06:26:50;;;;;;;4.83;4.13;;;;;;;13.02;37.37;98997.16;7030980;28;20200;-78
2022/04/18 06:30:12;;;;;;;4.10;3.70;;;;;;;13.54;36.23;98991.44;7021700;28;20223;-82
2022/04/18 06:33:34;;;;;;;3.97;3.33;;;;;;;13.33;36.71;98989.91;7021474;28;20674;-81
2022/04/18 06:36:55;;;;;;;4.60;3.60;;;;;;;12.83;37.73;98979.13;7021634;28;20744;-78
2022/04/18 06:40:17;;;;;;;4.83;3.60;;;;;;;14.49;34.83;98973.69;7018662;28;20224;-81
2022/04/18 06:43:40;;;;;;;5.40;4.90;;;;;;;14.89;34.21;98963.19;7031465;28;20205;-78
2022/04/18 06:47:02;;;;;;;3.53;3.10;;;;;;;14.04;36.33;98955.16;7030065;28;20206;-80
2022/04/18 06:50:23;;;;;;;4.57;3.80;;;;;;;14.30;33.81;98933.22;7028025;28;20746;-78
2022/04/18 06:53:45;;;;;;;4.83;3.30;;;;;;;14.74;32.19;98966.28;7032537;28;20216;-79
2022/04/18 06:57:07;;;;;;;5.87;3.27;;;;;;;14.91;31.73;98961.91;7031657;28;20208;-79
2022/04/18 07:00:30;;;;;;;3.87;3.33;;;;;;;15.36;31.38;98973.22;7030716;28;20232;-79
2022/04/18 07:03:52;;;;;;;4.47;3.90;;;;;;;14.99;31.58;98968.91;7023501;28;20674;-79
2022/04/18 07:07:13;;;;;;;4.23;3.20;;;;;;;16.26;29.79;98945.53;7015836;28;20782;-79
2022/04/18 07:10:35;;;;;;;5.10;3.70;;;;;;;16.90;27.80;98916.19;7011994;28;20851;-79
2022/04/18 07:13:57;;;;;;;4.30;3.43;;;;;;;16.74;28.64;98971.41;7020196;28;20208;-79
2022/04/18 07:17:20;;;;;;;6.73;3.50;;;;;;;17.43;27.89;98973.94;7017328;28;20236;-79
2022/04/18 07:20:42;;;;;;;4.07;3.53;;;;;;;17.31;28.05;98970.41;7018558;28;20220;-79
2022/04/18 07:24:03;;;;;;;3.77;3.47;;;;;;;16.86;29.02;98950.44;7006161;28;20253;-79
2022/04/18 07:27:25;;;;;;;4.33;3.60;;;;;;;15.06;30.33;98953.34;7023790;28;20283;-81
2022/04/18 07:30:46;;;;;;;4.27;3.87;;;;;;;14.71;31.32;98960.50;7029722;28;20232;-80
2022/04/18 07:34:09;;;;;;;4.13;3.70;;;;;;;14.31;32.05;98946.56;7009480;28;20226;-79
2022/04/18 07:37:31;;;;;;;3.90;3.60;;;;;;;13.74;32.81;98954.19;7020630;28;20227;-79
2022/04/18 07:40:54;;;;;;;4.70;3.93;;;;;;;14.18;32.42;98954.81;7017867;28;20306;-79
2022/04/18 07:44:15;;;;;;;5.13;4.10;;;;;;;13.86;32.35;98933.44;7015671;28;20194;-80
2022/04/18 07:47:37;;;;;;;4.00;3.63;;;;;;;14.58;31.47;98972.31;7020088;28;20220;-80
2022/04/18 07:54:39;;;;;;;7.43;4.00;;;;;;;14.59;32.81;98975.88;7015418;28;20205;-80
2022/04/18 07:58:01;;;;;;;4.07;3.67;;;;;;;16.18;29.83;98970.38;7004672;28;20197;-79
2022/04/18 08:01:23;;;;;;;4.13;3.73;;;;;;;14.08;32.04;98935.50;7006485;28;20376;-79
2022/04/18 08:04:44;;;;;;;5.10;3.63;;;;;;;14.83;31.49;98970.38;7008317;28;20188;-78
2022/04/18 08:08:08;;;;;;;4.70;4.13;;;;;;;14.89;32.70;98965.91;7006951;28;20209;-79
2022/04/18 08:11:30;;;;;;;4.03;3.63;;;;;;;16.14;30.07;98964.59;7008320;28;20229;-79
2022/04/18 08:14:51;;;;;;;4.17;3.80;;;;;;;15.40;31.59;98958.91;7008612;28;20228;-79
2022/04/18 08:18:13;;;;;;;4.60;4.03;;;;;;;15.43;31.67;98963.91;7007530;28;20339;-79
2022/04/18 08:21:35;;;;;;;4.20;3.80;;;;;;;16.20;31.12;98960.94;7008113;28;20215;-79
2022/04/18 08:24:58;;;;;;;4.00;3.70;;;;;;;15.18;32.26;98956.94;7007878;28;20586;-80
2022/04/18 08:28:19;;;;;;;4.47;4.00;;;;;;;16.47;30.16;98964.00;7008037;28;20232;-79
2022/04/18 08:31:41;;;;;;;4.10;3.47;;;;;;;16.74;30.36;98954.28;7008343;28;20267;-79
2022/04/18 08:35:02;;;;;;;3.70;3.40;;;;;;;17.18;29.06;98958.97;7031187;28;20609;-80
2022/04/18 08:38:24;;;;;;;4.03;3.63;;;;;;;18.05;27.28;98952.91;7035515;28;20296;-79
2022/04/18 08:41:51;;;;;;;3.70;3.40;;;;;;;17.31;28.31;98964.09;7035075;28;20320;-81
2022/04/18 08:45:14;;;;;;;4.23;3.77;;;;;;;16.93;29.59;98947.56;7036429;28;20190;-79
2022/04/18 08:55:55;;;;;;;6.27;3.60;;;;;;;18.07;28.30;98942.56;7033170;28;20222;-78
2022/04/18 08:59:18;;;;;;;5.57;3.73;;;;;;;17.98;27.47;98952.25;7033864;28;20201;-78
2022/04/18 09:02:40;;;;;;;4.13;3.60;;;;;;;17.53;27.88;98926.94;7033878;28;20291;-79
2022/04/18 09:06:08;;;;;;;4.57;3.63;;;;;;;18.16;26.92;98949.25;7034333;28;20205;-80
2022/04/18 09:09:30;;;;;;;3.93;3.13;;;;;;;18.36;26.54;98920.38;7022292;28;20223;-78
2022/04/18 09:12:52;;;;;;;5.10;3.70;;;;;;;16.86;27.64;98939.53;7022002;28;21021;-79
2022/04/18 09:16:18;;;;;;;4.57;3.23;;;;;;;17.05;27.31;98937.47;7018608;28;20354;-78
2022/04/18 09:19:39;;;;;;;3.67;3.20;;;;;;;18.21;26.54;98924.78;7018723;28;20250;-77
2022/04/18 09:23:01;;;;;;;4.50;3.70;;;;;;;17.27;28.87;98933.78;7016146;28;20248;-78
2022/04/18 09:26:22;;;;;;;3.73;3.13;;;;;;;18.61;26.52;98919.88;7024027;28;20231;-78
2022/04/18 09:29:44;;;;;;;4.37;3.67;;;;;;;18.05;26.11;98898.31;7016133;28;20303;-78
2022/04/18 09:33:08;;;;;;;3.83;3.23;;;;;;;18.40;26.06;98899.66;7022077;28;20201;-79
2022/04/18 09:36:29;;;;;;;5.40;3.33;;;;;;;18.22;26.12;98926.41;7029601;28;20299;-80
2022/04/18 09:39:52;;;;;;;5.33;3.93;;;;;;;17.90;25.93;98920.75;7016408;28;20725;-80
2022/04/18 09:43:14;;;;;;;3.70;3.40;;;;;;;17.04;26.59;98857.63;7019337;28;20221;-80
2022/04/18 09:46:35;;;;;;;3.60;3.30;;;;;;;16.72;27.76;98910.09;7032948;28;20314;-80
2022/04/18 09:49:58;;;;;;;3.80;3.30;;;;;;;17.43;27.10;98911.22;7036362;28;20228;-80
2022/04/18 09:53:21;;;;;;;4.17;3.77;;;;;;;17.24;27.02;98906.22;7036225;28;20201;-80
2022/04/18 09:56:49;;;;;;;4.77;3.63;;;;;;;17.71;27.14;98896.69;7034426;28;20224;-79
2022/04/18 10:00:12;;;;;;;4.10;3.63;;;;;;;18.54;25.77;98891.94;7034987;28;20218;-79
2022/04/18 10:03:34;;;;;;;5.60;3.63;;;;;;;18.07;25.60;98886.09;7035072;28;20197;-79
2022/04/18 10:06:58;;;;;;;4.13;3.57;;;;;;;17.69;26.17;98893.41;7034414;28;20278;-79
2022/04/18 10:10:20;;;;;;;3.73;3.13;;;;;;;18.16;26.21;98886.50;7034724;28;20277;-79
2022/04/18 10:13:42;;;;;;;3.27;2.90;;;;;;;19.32;23.49;98879.47;7035273;28;20201;-79
2022/04/18 10:17:05;;;;;;;4.53;3.33;;;;;;;18.64;25.24;98883.88;7034226;28;20299;-79
2022/04/18 10:20:37;;;;;;;3.73;3.17;;;;;;;18.31;25.58;98875.75;7034270;28;20709;-79
2022/04/18 10:24:43;;;;;;;3.50;3.20;;;;;;;19.50;24.72;98878.25;7016381;28;20192;-79
2022/04/18 10:28:10;;;;;;;4.07;3.40;;;;;;;18.94;24.52;98865.09;7020639;28;20202;-79
2022/04/18 10:31:34;;;;;;;3.67;2.80;;;;;;;20.80;23.23;98863.47;7027706;28;20231;-79
2022/04/18 10:34:58;;;;;;;3.70;3.07;;;;;;;21.55;22.13;98858.16;7021812;28;20221;-80
2022/04/18 10:38:23;;;;;;;3.57;3.10;;;;;;;20.96;21.38;98859.72;7032355;28;20208;-80
2022/04/18 10:41:46;;;;;;;4.90;3.13;;;;;;;21.34;20.52;98820.84;7032672;28;20224;-79
2022/04/18 10:45:11;;;;;;;3.90;3.03;;;;;;;20.35;22.66;98837.81;7032361;28;20204;-80
2022/04/18 10:48:34;;;;;;;3.33;2.80;;;;;;;21.04;21.65;98842.75;7032247;28;20209;-79
2022/04/18 10:51:57;;;;;;;3.03;2.73;;;;;;;20.54;22.12;98842.56;7030658;28;20283;-80
2022/04/18 10:55:20;;;;;;;3.43;3.10;;;;;;;19.90;22.79;98846.56;7031784;28;20350;-79
2022/04/18 10:58:44;;;;;;;3.03;2.67;;;;;;;21.62;22.13;98828.53;7032147;28;20198;-80
2022/04/18 11:02:08;;;;;;;4.20;3.03;;;;;;;22.05;20.88;98831.50;7031433;28;20301;-80
2022/04/18 11:05:36;;;;;;;5.03;3.47;;;;;;;20.27;22.15;98841.09;7031724;28;20198;-80
2022/04/18 11:08:59;;;;;;;3.90;3.30;;;;;;;19.35;23.83;98831.66;7035517;28;20194;-80
2022/04/18 11:12:21;;;;;;;4.17;3.30;;;;;;;19.59;23.33;98830.19;7015646;28;20230;-79
2022/04/18 11:15:43;;;;;;;4.90;3.33;;;;;;;19.28;23.76;98817.38;7004910;28;20226;-82
2022/04/18 11:19:10;;;;;;;3.30;3.00;;;;;;;20.50;23.45;98807.75;7015720;28;20297;-81
2022/04/18 11:22:31;;;;;;;3.43;3.13;;;;;;;20.13;22.22;98815.25;7020342;28;20201;-79
2022/04/18 11:25:57;;;;;;;5.03;2.80;;;;;;;19.62;22.25;98796.84;7027410;28;20348;-79
2022/04/18 11:29:21;;;;;;;4.40;2.97;;;;;;;20.18;22.12;98816.13;7026981;28;20632;-79
2022/04/18 11:32:44;;;;;;;4.30;3.10;;;;;;;19.26;22.65;98812.16;7021575;28;20213;-79
2022/04/18 11:36:08;;;;;;;3.87;3.57;;;;;;;21.63;21.73;98800.81;7020418;28;20786;-79
2022/04/18 11:39:43;;;;;;;4.23;3.27;;;;;;;21.77;21.49;98799.16;7039617;28;20256;-80
2022/04/18 11:43:11;;;;;;;3.30;3.00;;;;;;;22.51;20.56;98775.34;7008418;28;20211;-80
2022/04/18 11:46:33;;;;;;;3.10;2.80;;;;;;;20.24;23.24;98793.16;7026747;28;20224;-79
2022/04/18 11:49:55;;;;;;;3.27;2.90;;;;;;;20.96;21.84;98793.09;7022434;28;20236;-79
2022/04/18 11:53:18;;;;;;;4.40;3.20;;;;;;;20.25;22.21;98775.63;7020422;28;20204;-79
2022/04/18 11:56:40;;;;;;;3.27;2.97;;;;;;;20.51;23.31;98771.88;7026357;28;20247;-79
2022/04/18 12:00:04;;;;;;;3.83;3.30;;;;;;;21.18;22.06;98731.44;7021365;28;20227;-79
2022/04/18 12:07:05;;;;;;;3.33;2.93;;;;;;;21.06;21.93;98760.22;7029685;28;20613;-80
2022/04/18 12:10:31;;;;;;;4.50;3.00;;;;;;;20.99;21.80;98773.38;7040101;28;20223;-80
2022/04/18 12:13:53;;;;;;;4.87;3.40;;;;;;;20.35;22.49;98753.72;7041921;28;20223;-80
2022/04/18 12:17:17;;;;;;;4.20;2.90;;;;;;;20.27;22.17;98767.16;7038308;28;20244;-80
2022/04/18 12:20:42;;;;;;;3.00;2.70;;;;;;;20.69;21.15;98738.50;7038718;28;20234;-80
2022/04/18 12:24:05;;;;;;;4.20;2.90;;;;;;;19.57;22.94;98736.66;7039246;28;20202;-80
2022/04/18 12:27:39;;;;;;;3.57;3.27;;;;;;;21.13;21.36;98732.25;7038843;28;20197;-80
2022/04/18 12:31:01;;;;;;;3.83;3.07;;;;;;;21.94;21.32;98738.44;7039332;28;20284;-80
2022/04/18 12:34:23;;;;;;;3.27;2.97;;;;;;;21.10;21.10;98731.19;7037970;28;20216;-79
2022/04/18 12:37:48;;;;;;;3.43;2.60;;;;;;;21.80;20.48;98727.25;7028956;28;20223;-79
2022/04/18 12:41:10;;;;;;;2.93;2.70;;;;;;;21.88;21.42;98714.84;7025939;28;20213;-79
2022/04/18 12:44:33;;;;;;;3.83;3.13;;;;;;;20.82;21.47;98732.47;7020849;28;20260;-79
2022/04/18 12:47:54;;;;;;;3.57;2.90;;;;;;;20.53;21.99;98727.78;7020886;28;20193;-81
2022/04/18 12:51:16;;;;;;;5.17;2.63;;;;;;;21.22;22.04;98727.03;7021088;28;20223;-80
2022/04/18 12:54:45;;;;;;;3.53;3.00;;;;;;;21.63;21.16;98703.94;7022602;28;20195;-79
2022/04/18 12:58:16;;;;;;;5.70;2.90;;;;;;;22.94;20.73;98707.69;7023174;28;20291;-81
2022/04/18 13:01:39;;;;;;;4.47;2.93;;;;;;;21.02;21.05;98689.47;7023477;28;20228;-78
2022/04/18 13:05:01;;;;;;;3.10;2.57;;;;;;;22.67;20.22;98705.41;7037450;28;20196;-79
2022/04/18 13:08:23;;;;;;;3.10;2.80;;;;;;;22.17;20.26;98682.88;7037052;28;20198;-80
2022/04/18 13:11:46;;;;;;;3.87;3.10;;;;;;;22.82;19.80;98685.25;7040298;28;20371;-79
2022/04/18 13:15:11;;;;;;;5.33;2.80;;;;;;;22.29;20.51;98686.13;7047313;28;20219;-81
2022/04/18 13:18:38;;;;;;;3.07;2.70;;;;;;;22.06;21.30;98682.13;7051861;28;20205;-83
2022/04/18 13:22:00;;;;;;;5.47;3.10;;;;;;;22.84;19.80;98680.31;7037557;28;20275;-81
2022/04/18 13:25:21;;;;;;;3.37;2.63;;;;;;;22.35;20.28;98680.31;7052590;28;20217;-81
2022/04/18 13:28:43;;;;;;;3.50;2.90;;;;;;;21.73;21.07;98658.09;7045031;28;20237;-81
2022/04/18 13:32:05;;;;;;;3.20;2.87;;;;;;;23.00;19.66;98666.13;7045138;28;20235;-79
2022/04/18 13:35:28;;;;;;;2.73;2.53;;;;;;;24.19;18.52;98662.41;7031517;28;20203;-80
2022/04/18 13:38:49;;;;;;;3.10;2.87;;;;;;;21.99;19.41;98676.13;7020525;28;20276;-79
2022/04/18 13:42:11;;;;;;;3.63;2.90;;;;;;;21.83;21.35;98660.00;7020926;28;20255;-79
2022/04/18 13:45:33;;;;;;;3.20;2.83;;;;;;;22.98;20.12;98651.88;7020279;28;20263;-79
2022/04/18 13:48:54;;;;;;;2.87;2.50;;;;;;;23.40;19.77;98651.19;7025332;28;20206;-79
2022/04/18 13:52:17;;;;;;;3.67;2.70;;;;;;;24.16;18.96;98655.53;7018162;28;20336;-80
2022/04/18 13:55:39;;;;;;;4.07;2.80;;;;;;;21.43;20.68;98644.44;7017570;28;20223;-80
2022/04/18 13:59:02;;;;;;;3.90;3.30;;;;;;;22.40;19.91;98636.34;7021700;28;20211;-79
2022/04/18 14:02:24;;;;;;;5.63;2.93;;;;;;;21.85;20.62;98633.91;7020753;28;20202;-79
2022/04/18 14:05:46;;;;;;;3.27;2.97;;;;;;;22.66;20.06;98629.56;7022652;28;20584;-80
2022/04/18 14:09:09;;;;;;;2.80;2.43;;;;;;;23.13;19.57;98601.41;7015434;28;20201;-80
2022/04/18 14:12:30;;;;;;;3.87;2.67;;;;;;;22.14;20.32;98620.31;7020099;28;20203;-79
2022/04/18 14:23:10;;;;;;;2.80;2.50;;;;;;;23.51;19.53;98600.44;7018096;28;20682;-80
2022/04/18 14:26:33;;;;;;;3.50;2.80;;;;;;;22.29;20.36;98601.78;7021767;28;20206;-80
2022/04/18 14:29:55;;;;;;;2.80;2.57;;;;;;;21.63;20.90;98616.97;7020114;28;20306;-80
2022/04/18 14:33:17;;;;;;;2.87;2.60;;;;;;;21.76;20.91;98604.56;7020754;28;20686;-80
2022/04/18 14:36:39;;;;;;;2.70;2.50;;;;;;;22.64;20.39;98595.22;7006508;28;20259;-79
2022/04/18 14:40:00;;;;;;;2.57;2.23;;;;;;;23.00;20.42;98605.63;7019141;28;20229;-80
2022/04/18 14:43:23;;;;;;;2.97;2.23;;;;;;;21.83;20.62;98570.22;7021384;28;20584;-80
2022/04/18 14:46:45;;;;;;;3.30;2.37;;;;;;;21.88;20.80;98607.81;7017753;28;20668;-80
2022/04/18 14:50:07;;;;;;;2.97;2.47;;;;;;;22.86;19.64;98588.19;7025133;28;20654;-84
2022/04/18 14:53:29;;;;;;;2.37;2.17;;;;;;;22.71;20.58;98588.31;7023816;28;20192;-81
2022/04/18 14:56:51;;;;;;;2.97;2.30;;;;;;;21.98;20.67;98602.25;7021193;28;20308;-80
2022/04/18 15:00:15;;;;;;;2.80;2.60;;;;;;;22.22;20.22;98594.97;7024059;28;20217;-80
2022/04/18 15:03:37;;;;;;;2.47;2.27;;;;;;;22.44;20.90;98601.72;7028620;28;20205;-80
2022/04/18 15:06:58;;;;;;;2.47;2.27;;;;;;;22.96;19.48;98573.50;7021163;28;20200;-81
2022/04/18 15:10:20;;;;;;;2.10;1.93;;;;;;;22.44;20.11;98589.91;7034375;28;20216;-81
2022/04/18 15:13:42;;;;;;;2.60;2.23;;;;;;;22.12;21.23;98578.59;7046984;28;20194;-81
2022/04/18 15:17:06;;;;;;;2.30;2.10;;;;;;;22.96;20.56;98581.75;7043028;28;20244;-81
2022/04/18 15:20:27;;;;;;;2.80;2.20;;;;;;;23.07;20.31;98564.84;7042309;28;20227;-81
2022/04/18 15:23:49;;;;;;;3.20;2.40;;;;;;;22.74;20.33;98579.50;7032467;28;20209;-81
2022/04/18 15:27:11;;;;;;;3.63;1.80;;;;;;;23.44;19.97;98577.97;7024786;28;20230;-81
2022/04/18 15:34:13;;;;;;;2.83;2.20;;;;;;;23.27;19.21;98564.69;7030097;28;20197;-80
2022/04/18 15:37:34;;;;;;;3.03;2.20;;;;;;;22.42;20.30;98557.19;7038538;28;20220;-80
2022/04/18 15:40:56;;;;;;;3.50;2.40;;;;;;;22.05;20.64;98575.31;7041915;28;20225;-80
2022/04/18 15:44:17;;;;;;;2.77;2.17;;;;;;;21.08;21.33;98570.50;7041206;28;20205;-80
2022/04/18 15:47:40;;;;;;;1.83;1.73;;;;;;;22.48;20.25;98555.28;7040072;28;20205;-80
2022/04/18 15:51:03;;;;;;;2.20;2.03;;;;;;;21.57;21.03;98563.19;7041030;28;20226;-80
2022/04/18 15:54:25;;;;;;;2.80;2.27;;;;;;;22.31;20.19;98558.38;7041351;28;20275;-80
2022/04/18 15:57:47;;;;;;;2.30;2.10;;;;;;;22.77;20.26;98567.91;7041020;28;20223;-81
2022/04/18 16:01:08;;;;;;;3.40;2.03;;;;;;;22.82;20.22;98567.03;7039813;28;20254;-80
2022/04/18 16:04:30;;;;;;;2.93;2.20;;;;;;;22.37;20.89;98568.22;7015708;28;20219;-80
2022/04/18 16:07:53;;;;;;;2.70;2.27;;;;;;;22.68;21.08;98555.06;7013584;28;20212;-80
2022/04/18 16:11:14;;;;;;;2.10;1.90;;;;;;;22.74;20.15;98568.50;7015657;28;20217;-80
2022/04/18 16:14:36;;;;;;;2.10;1.93;;;;;;;21.85;20.82;98572.69;7040210;28;20307;-80
2022/04/18 16:17:58;;;;;;;3.70;1.80;;;;;;;21.55;20.75;98581.84;7041179;28;20272;-80
2022/04/18 16:21:19;;;;;;;2.13;1.93;;;;;;;22.03;21.22;98577.53;7042294;28;20276;-80
2022/04/18 16:24:42;;;;;;;1.80;1.70;;;;;;;21.83;20.29;98544.72;7048379;28;20202;-81
2022/04/18 16:28:04;;;;;;;2.03;1.83;;;;;;;21.17;21.24;98565.25;7040013;28;20208;-80
2022/04/18 16:35:05;;;;;;;2.20;2.00;;;;;;;22.29;20.09;98557.84;7039041;28;20204;-80